Time;durP1;ratioP1;P1;durP2;ratioP2;P2;SDS_P1;SDS_P2;PMS_P1;PMS_P2;Temp;Humidity;BMP_temperature;BMP_pressure;BME280_temperature;BME280_humidity;BME280_pressure;Samples;Min_cycle;Max_cycle;Signal;HPM_P1;HPM_P2
2022/10/15 00:01:29;;;;;;;2.93;2.73;;;;;;;13.60;100.00;96004.25;5029618;28;102738;-60
2022/10/15 00:03:57;;;;;;;3.87;2.70;;;;;;;13.60;100.00;96004.25;5028905;28;101969;-60
2022/10/15 00:06:24;;;;;;;4.73;2.53;;;;;;;13.51;100.00;96003.28;5030552;27;102615;-60
2022/10/15 00:08:51;;;;;;;3.83;2.87;;;;;;;13.53;100.00;96003.78;5031989;28;105932;-60
2022/10/15 00:11:21;;;;;;;3.23;2.37;;;;;;;13.58;100.00;96006.44;5037593;28;101900;-60
2022/10/15 00:13:48;;;;;;;3.37;2.47;;;;;;;13.58;100.00;96001.09;5031874;28;104854;-60
2022/10/15 00:16:19;;;;;;;2.70;2.50;;;;;;;13.62;100.00;95986.88;5033587;28;101824;-60
2022/10/15 00:18:46;;;;;;;3.47;2.47;;;;;;;13.65;100.00;95990.88;5033990;27;102302;-60
2022/10/15 00:21:29;;;;;;;2.80;2.60;;;;;;;13.65;100.00;95988.19;5033102;27;102513;-60
2022/10/15 00:23:56;;;;;;;2.93;2.73;;;;;;;13.66;100.00;95989.78;5033918;27;101713;-60
2022/10/15 00:26:29;;;;;;;3.33;2.60;;;;;;;13.70;100.00;95988.16;5033457;28;102244;-60
2022/10/15 00:28:58;;;;;;;3.53;2.50;;;;;;;13.70;100.00;95982.81;5033427;28;103180;-60
2022/10/15 00:31:27;;;;;;;3.43;2.50;;;;;;;13.72;100.00;95970.78;5032208;28;101791;-60
2022/10/15 00:33:56;;;;;;;2.53;2.40;;;;;;;13.73;100.00;95968.91;5035152;28;105506;-60
2022/10/15 00:36:25;;;;;;;2.70;2.50;;;;;;;13.73;100.00;95961.66;5031990;28;101860;-60
2022/10/15 00:38:54;;;;;;;2.70;2.50;;;;;;;13.69;100.00;95959.84;5033218;27;102727;-60
2022/10/15 00:41:24;;;;;;;2.80;2.60;;;;;;;13.67;100.00;95961.97;5031445;28;105563;-60
2022/10/15 00:43:53;;;;;;;5.37;2.73;;;;;;;13.69;100.00;95951.84;5031973;28;101927;-60
2022/10/15 00:46:52;;;;;;;5.93;2.90;;;;;;;13.70;100.00;95953.41;5031886;28;104812;-60
2022/10/15 00:49:24;;;;;;;3.17;2.87;;;;;;;13.68;100.00;95948.34;5032850;27;102745;-60
2022/10/15 00:52:26;;;;;;;3.13;2.90;;;;;;;13.68;100.00;95945.69;5033331;27;101918;-60
2022/10/15 00:55:00;;;;;;;2.53;2.33;;;;;;;13.70;100.00;95948.06;5031578;28;105226;-60
2022/10/15 00:57:51;;;;;;;2.90;2.70;;;;;;;13.72;100.00;95936.03;5036113;27;103061;-60
2022/10/15 01:00:20;;;;;;;2.70;2.57;;;;;;;13.73;100.00;95939.50;5031786;28;103900;-60
2022/10/15 01:02:47;;;;;;;3.57;3.10;;;;;;;13.74;100.00;95933.88;5031110;28;105403;-60
2022/10/15 01:05:16;;;;;;;3.80;3.20;;;;;;;13.72;100.00;95922.66;5031520;28;101835;-60
2022/10/15 01:07:44;;;;;;;3.00;2.80;;;;;;;13.74;100.00;95914.38;5031714;28;105627;-60
2022/10/15 01:10:13;;;;;;;3.60;3.10;;;;;;;13.75;100.00;95910.63;5030961;28;105391;-60
2022/10/15 01:12:53;;;;;;;2.67;2.47;;;;;;;13.74;100.00;95911.72;5031521;28;101910;-60
2022/10/15 01:15:25;;;;;;;2.90;2.70;;;;;;;13.73;100.00;95912.78;5031621;28;105247;-60
2022/10/15 01:17:57;;;;;;;3.20;2.90;;;;;;;13.70;100.00;95924.03;5032059;27;102820;-60
2022/10/15 01:21:05;;;;;;;3.17;2.87;;;;;;;13.67;100.00;95897.84;5034759;28;101785;-60
2022/10/15 01:23:59;;;;;;;3.30;3.10;;;;;;;13.69;100.00;95899.16;5030716;28;105855;-60
2022/10/15 01:26:55;;;;;;;3.20;3.00;;;;;;;13.70;100.00;95889.28;5032788;27;101716;-60
2022/10/15 01:29:41;;;;;;;4.40;2.70;;;;;;;13.69;100.00;95890.38;5031458;28;105449;-60
2022/10/15 01:32:17;;;;;;;2.97;2.47;;;;;;;13.66;100.00;95885.59;5030636;28;104066;-60
2022/10/15 01:34:51;;;;;;;3.20;2.30;;;;;;;13.61;100.00;95883.75;5031138;28;101892;-60
2022/10/15 01:37:36;;;;;;;3.20;2.90;;;;;;;13.63;100.00;95876.25;5031233;28;105067;-60
2022/10/15 01:40:09;;;;;;;3.23;2.93;;;;;;;13.63;100.00;95875.47;5030475;28;105355;-60
2022/10/15 01:42:56;;;;;;;3.73;2.80;;;;;;;13.53;100.00;95875.56;5031195;28;101829;-60
2022/10/15 01:45:32;;;;;;;4.47;3.07;;;;;;;13.41;100.00;95877.81;5033703;28;104999;-60
2022/10/15 01:48:28;;;;;;;4.97;3.60;;;;;;;13.37;100.00;95888.25;5025235;27;101880;-60
2022/10/15 01:51:23;;;;;;;4.07;3.33;;;;;;;13.35;100.00;95885.03;5031279;28;104477;-60
2022/10/15 01:53:52;;;;;;;2.70;2.50;;;;;;;13.21;100.00;95892.13;5029606;28;106078;-60
2022/10/15 01:56:22;;;;;;;3.80;3.20;;;;;;;13.23;100.00;95889.16;5030776;28;101938;-60
2022/10/15 01:58:53;;;;;;;3.50;3.20;;;;;;;13.29;100.00;95885.34;5030930;28;103827;-60
2022/10/15 02:01:20;;;;;;;3.87;3.47;;;;;;;13.23;100.00;95881.94;5030280;28;105584;-60
2022/10/15 02:03:50;;;;;;;4.17;3.77;;;;;;;13.26;100.00;95886.75;5030758;28;101932;-60
2022/10/15 02:06:42;;;;;;;3.70;3.47;;;;;;;13.29;100.00;95880.00;5030880;28;104535;-60
2022/10/15 02:09:17;;;;;;;4.00;3.60;;;;;;;13.27;100.00;95877.66;5033375;28;101822;-60
2022/10/15 02:11:55;;;;;;;3.90;3.60;;;;;;;13.29;100.00;95870.16;5030767;28;105250;-60
2022/10/15 02:14:29;;;;;;;3.70;3.40;;;;;;;13.34;100.00;95869.28;5030069;28;105210;-60
2022/10/15 02:17:11;;;;;;;3.43;3.23;;;;;;;13.40;100.00;95870.88;5030447;28;101944;-60
2022/10/15 02:19:49;;;;;;;4.60;3.40;;;;;;;13.41;100.00;95875.91;5032310;28;102366;-60
2022/10/15 02:22:27;;;;;;;4.97;3.87;;;;;;;13.40;100.00;95870.88;5029788;28;105417;-60
2022/10/15 02:24:58;;;;;;;3.47;3.17;;;;;;;13.33;100.00;95870.38;5031751;28;101714;-60
2022/10/15 02:28:08;;;;;;;3.73;3.43;;;;;;;13.38;100.00;95857.78;5030471;28;105230;-60
2022/10/15 02:30:39;;;;;;;4.47;3.40;;;;;;;13.29;100.00;95866.66;5033449;28;102570;-60
2022/10/15 02:33:07;;;;;;;3.93;3.63;;;;;;;13.33;100.00;95867.72;5030450;28;104652;-60
2022/10/15 02:35:36;;;;;;;3.83;3.00;;;;;;;13.32;100.00;95861.59;5029631;28;106046;-60
2022/10/15 02:38:10;;;;;;;3.47;3.27;;;;;;;13.30;100.00;95861.06;5030115;28;101866;-60
2022/10/15 02:40:40;;;;;;;4.20;3.10;;;;;;;13.26;100.00;95856.56;5030355;28;104074;-60
2022/10/15 02:43:11;;;;;;;4.57;3.20;;;;;;;13.28;100.00;95854.41;5029616;28;105930;-60
2022/10/15 02:45:38;;;;;;;3.63;2.60;;;;;;;13.31;100.00;95856.53;5031524;28;101766;-60
2022/10/15 02:48:07;;;;;;;3.07;2.87;;;;;;;13.23;100.00;95849.09;5029991;28;104580;-60
2022/10/15 02:50:36;;;;;;;3.40;2.70;;;;;;;13.21;100.00;95851.25;5029372;28;105490;-60
2022/10/15 02:53:03;;;;;;;4.43;2.73;;;;;;;13.22;100.00;95853.66;5033348;28;101850;-60
2022/10/15 02:55:31;;;;;;;2.30;2.10;;;;;;;13.20;100.00;95847.78;5029285;28;105525;-60
2022/10/15 02:57:58;;;;;;;2.60;2.40;;;;;;;13.16;100.00;95856.63;5029866;28;101908;-60
2022/10/15 03:00:25;;;;;;;2.47;2.27;;;;;;;13.15;100.00;95853.19;5029867;28;104776;-60
2022/10/15 03:02:52;;;;;;;2.53;2.20;;;;;;;13.18;100.00;95857.16;5029380;28;105056;-60
2022/10/15 03:05:19;;;;;;;2.50;2.30;;;;;;;13.17;100.00;95860.91;5029755;28;101929;-60
2022/10/15 03:07:48;;;;;;;4.17;2.63;;;;;;;13.19;100.00;95854.19;5029837;28;105030;-60
2022/10/15 03:10:15;;;;;;;2.77;2.53;;;;;;;13.17;100.00;95850.22;5029215;28;105359;-60
2022/10/15 03:12:44;;;;;;;2.60;2.40;;;;;;;13.15;100.00;95847.84;5029555;28;102013;-60
2022/10/15 03:15:12;;;;;;;2.60;2.40;;;;;;;13.16;100.00;95860.13;5032354;28;105024;-60
2022/10/15 03:17:47;;;;;;;2.90;2.43;;;;;;;13.20;100.00;95852.34;5029605;28;101914;-60
2022/10/15 03:20:39;;;;;;;2.50;2.30;;;;;;;13.23;100.00;95851.75;5029733;28;104925;-60
2022/10/15 03:23:08;;;;;;;3.50;2.60;;;;;;;13.20;100.00;95847.00;5028918;28;105241;-60
2022/10/15 03:25:35;;;;;;;2.50;2.30;;;;;;;13.18;100.00;95851.81;5029435;28;102052;-60
2022/10/15 03:28:04;;;;;;;2.87;2.27;;;;;;;13.18;100.00;95847.28;5029656;28;104867;-60
2022/10/15 03:30:42;;;;;;;2.73;2.30;;;;;;;13.20;100.00;95844.34;5028859;28;105151;-60
2022/10/15 03:33:10;;;;;;;4.40;2.27;;;;;;;13.22;100.00;95852.84;5029440;28;101981;-60
2022/10/15 03:35:38;;;;;;;4.00;3.40;;;;;;;13.18;100.00;95839.25;5029285;28;104848;-60
2022/10/15 03:38:06;;;;;;;3.73;3.40;;;;;;;13.21;100.00;95851.25;5032053;28;105832;-60
2022/10/15 03:40:36;;;;;;;3.40;3.10;;;;;;;13.19;100.00;95848.09;5029259;28;105160;-60
2022/10/15 03:43:16;;;;;;;2.17;2.07;;;;;;;13.17;100.00;95855.56;5028239;28;105046;-60
2022/10/15 03:45:44;;;;;;;3.07;2.50;;;;;;;13.18;100.00;95851.81;5029120;28;101948;-60
2022/10/15 03:48:19;;;;;;;2.63;2.43;;;;;;;13.20;100.00;95855.00;5029112;28;105066;-60
2022/10/15 03:51:04;;;;;;;2.57;2.00;;;;;;;13.15;100.00;95857.72;5029994;27;103026;-60
2022/10/15 03:53:31;;;;;;;2.47;2.27;;;;;;;13.16;100.00;95851.31;5028629;28;101915;-60
2022/10/15 03:56:04;;;;;;;3.43;2.50;;;;;;;13.20;100.00;95839.00;5029216;28;104845;-60
2022/10/15 03:58:31;;;;;;;2.27;2.17;;;;;;;13.19;100.00;95842.75;5028458;28;105133;-60
2022/10/15 04:01:02;;;;;;;2.53;2.07;;;;;;;13.19;100.00;95842.75;5032567;28;101974;-60
2022/10/15 04:03:29;;;;;;;2.27;2.07;;;;;;;13.21;100.00;95846.72;5028359;28;106014;-60
2022/10/15 04:06:18;;;;;;;3.17;2.40;;;;;;;13.22;100.00;95848.31;5028959;28;101994;-60
2022/10/15 04:08:46;;;;;;;3.17;2.13;;;;;;;13.24;100.00;95848.81;5028929;28;104874;-60
2022/10/15 04:11:22;;;;;;;2.60;2.30;;;;;;;13.27;100.00;95836.78;5028435;28;105676;-60
2022/10/15 04:13:59;;;;;;;2.53;2.07;;;;;;;13.27;100.00;95837.59;5028678;28;101907;-60
2022/10/15 04:16:33;;;;;;;2.73;2.20;;;;;;;13.29;100.00;95837.28;5028800;28;105796;-60
2022/10/15 04:19:05;;;;;;;2.80;2.50;;;;;;;13.31;100.00;95835.16;5028306;28;105481;-60
2022/10/15 04:21:34;;;;;;;3.13;2.50;;;;;;;13.34;100.00;95831.91;5032286;28;102040;-60
2022/10/15 04:24:04;;;;;;;2.00;1.90;;;;;;;13.37;100.00;95828.69;5028034;28;105189;-60
2022/10/15 04:26:42;;;;;;;2.20;2.00;;;;;;;13.32;100.00;95836.75;5028630;28;101972;-60
2022/10/15 04:29:09;;;;;;;2.83;2.57;;;;;;;13.32;100.00;95831.41;5028804;28;104750;-60
2022/10/15 04:31:37;;;;;;;2.90;2.70;;;;;;;13.35;100.00;95836.19;5028051;28;105526;-60
2022/10/15 04:34:05;;;;;;;2.37;1.97;;;;;;;13.36;100.00;95840.47;5028647;28;101929;-60
2022/10/15 04:36:40;;;;;;;2.53;2.30;;;;;;;13.32;100.00;95842.09;5028692;28;103691;-60
2022/10/15 04:39:15;;;;;;;2.50;2.30;;;;;;;13.29;100.00;95840.78;5028000;28;105432;-60
2022/10/15 04:41:45;;;;;;;2.90;2.30;;;;;;;13.32;100.00;95863.44;5028444;28;101910;-60
2022/10/15 04:44:15;;;;;;;2.67;2.40;;;;;;;13.33;100.00;95849.03;5031416;28;105754;-60
2022/10/15 04:47:01;;;;;;;3.47;2.40;;;;;;;13.30;100.00;95855.72;5028448;28;101830;-60
2022/10/15 04:49:48;;;;;;;2.30;2.03;;;;;;;13.29;100.00;95847.97;5029132;28;102298;-60
2022/10/15 04:52:34;;;;;;;2.37;2.13;;;;;;;13.33;100.00;95865.03;5027740;27;105112;-60
2022/10/15 04:55:07;;;;;;;3.63;2.20;;;;;;;13.30;100.00;95854.94;5030745;28;101837;-60
2022/10/15 04:57:41;;;;;;;2.50;2.20;;;;;;;13.34;100.00;95855.94;5032999;27;102975;-60
2022/10/15 05:00:09;;;;;;;2.13;1.90;;;;;;;13.36;100.00;95848.47;5031176;28;105818;-60
2022/10/15 05:02:56;;;;;;;1.80;1.70;;;;;;;13.37;100.00;95842.03;5031189;27;101860;-60
2022/10/15 05:05:34;;;;;;;1.53;1.50;;;;;;;13.34;100.00;95839.91;5031754;28;105012;-60
2022/10/15 05:08:05;;;;;;;5.53;2.23;;;;;;;13.37;100.00;95847.38;5034503;28;105072;-60
2022/10/15 05:10:55;;;;;;;1.87;1.67;;;;;;;13.44;100.00;95845.19;5032725;27;103991;-60
2022/10/15 05:13:24;;;;;;;1.80;1.70;;;;;;;13.40;100.00;95838.84;5031132;28;105286;-60
2022/10/15 05:15:54;;;;;;;1.87;1.77;;;;;;;13.44;100.00;95843.31;5031471;28;101898;-60
2022/10/15 05:18:24;;;;;;;2.03;1.93;;;;;;;13.43;100.00;95833.72;5011220;28;104801;-60
2022/10/15 05:21:39;;;;;;;2.17;2.00;;;;;;;13.45;100.00;95830.75;5010856;28;105191;-60
2022/10/15 05:24:14;;;;;;;3.10;1.90;;;;;;;13.44;100.00;95837.97;5011086;28;102349;-60
2022/10/15 05:27:37;;;;;;;1.80;1.70;;;;;;;13.43;100.00;95851.59;5044959;27;103935;-60
2022/10/15 05:30:09;;;;;;;2.07;1.90;;;;;;;13.46;100.00;95848.38;5010711;28;105584;-60
2022/10/15 05:32:43;;;;;;;1.90;1.80;;;;;;;13.43;100.00;95843.59;5014600;28;102034;-60
2022/10/15 05:35:13;;;;;;;1.90;1.80;;;;;;;13.44;100.00;95864.69;5010587;28;105087;-60
2022/10/15 05:38:05;;;;;;;1.80;1.70;;;;;;;13.49;100.00;95863.84;5010969;28;101904;-60
2022/10/15 05:40:33;;;;;;;2.07;1.87;;;;;;;13.53;100.00;95864.88;5011071;28;105188;-60
2022/10/15 05:43:26;;;;;;;2.50;2.00;;;;;;;13.55;100.00;95868.06;5009432;28;103731;-60
2022/10/15 05:46:02;;;;;;;2.07;1.87;;;;;;;13.55;100.00;95866.19;5010669;28;102156;-60
2022/10/15 05:48:29;;;;;;;1.87;1.77;;;;;;;13.55;100.00;95876.06;5010713;28;105413;-60
2022/10/15 05:51:06;;;;;;;1.70;1.60;;;;;;;13.55;100.00;95876.06;5010139;28;105218;-60
2022/10/15 05:53:35;;;;;;;2.03;1.93;;;;;;;13.59;100.00;95877.09;5010185;28;101894;-60
2022/10/15 05:56:08;;;;;;;3.03;1.93;;;;;;;13.57;100.00;95882.72;5013559;28;104923;-60
2022/10/15 05:58:37;;;;;;;3.50;1.70;;;;;;;13.59;100.00;95901.16;5010368;28;101839;-60
2022/10/15 06:01:08;;;;;;;1.83;1.73;;;;;;;13.55;100.00;95894.75;5010347;28;106315;-60
2022/10/15 06:03:39;;;;;;;1.80;1.70;;;;;;;13.61;100.00;95893.63;5009729;28;105458;-60
2022/10/15 06:06:26;;;;;;;2.33;2.10;;;;;;;13.59;100.00;95901.16;5043610;27;101982;-60
2022/10/15 06:08:54;;;;;;;3.00;1.90;;;;;;;13.64;100.00;95899.25;5010215;28;105464;-60
2022/10/15 06:11:22;;;;;;;1.70;1.60;;;;;;;13.67;100.00;95913.88;5009903;28;104347;-60
2022/10/15 06:13:49;;;;;;;1.93;1.70;;;;;;;13.74;100.00;95901.03;5009963;28;101948;-60
2022/10/15 06:16:19;;;;;;;1.80;1.70;;;;;;;13.71;100.00;95906.91;5010117;28;105289;-60
2022/10/15 06:18:46;;;;;;;2.20;1.57;;;;;;;13.70;100.00;95905.31;5012868;28;105077;-60
2022/10/15 06:21:36;;;;;;;2.03;1.93;;;;;;;13.68;100.00;95913.63;5010059;28;105116;-60
2022/10/15 06:24:03;;;;;;;1.83;1.63;;;;;;;13.71;100.00;95909.59;5009223;28;104181;-60
2022/10/15 06:26:30;;;;;;;3.93;2.03;;;;;;;13.71;100.00;95920.28;5009667;28;101994;-60
2022/10/15 06:28:58;;;;;;;2.30;1.70;;;;;;;13.71;100.00;95915.75;5010065;28;105200;-60
2022/10/15 06:31:27;;;;;;;2.23;1.90;;;;;;;13.76;100.00;95931.72;5009499;28;105595;-60
2022/10/15 06:33:54;;;;;;;3.53;1.90;;;;;;;13.75;100.00;95927.47;5010001;28;101977;-60
2022/10/15 06:36:29;;;;;;;1.90;1.80;;;;;;;13.75;100.00;95937.34;5009718;28;104762;-60
2022/10/15 06:38:56;;;;;;;5.97;1.90;;;;;;;13.77;100.00;95937.84;5014314;28;102004;-60
2022/10/15 06:41:23;;;;;;;1.93;1.60;;;;;;;13.81;100.00;95944.25;5011486;28;102371;-60
2022/10/15 06:43:50;;;;;;;1.70;1.60;;;;;;;13.85;100.00;95943.38;5009290;28;105647;-60
2022/10/15 06:46:29;;;;;;;2.57;2.03;;;;;;;13.87;100.00;95945.78;5011453;28;101904;-60
2022/10/15 06:48:56;;;;;;;2.33;1.67;;;;;;;13.88;100.00;95958.88;5009793;28;105497;-60
2022/10/15 06:51:37;;;;;;;2.27;1.80;;;;;;;13.96;100.00;95954.81;5009132;28;104863;-60
2022/10/15 06:54:04;;;;;;;2.30;2.10;;;;;;;13.94;100.00;95963.09;5019379;28;101928;-60
2022/10/15 06:56:32;;;;;;;2.57;1.80;;;;;;;13.97;100.00;95972.44;5029872;28;106052;-60
2022/10/15 06:58:58;;;;;;;2.53;1.93;;;;;;;14.00;100.00;95978.00;5029349;28;105801;-60
2022/10/15 07:01:25;;;;;;;1.97;1.80;;;;;;;14.01;100.00;95979.59;5033144;28;101943;-60
2022/10/15 07:03:54;;;;;;;2.10;1.93;;;;;;;14.01;100.00;95981.50;5029300;28;105385;-60
2022/10/15 07:06:54;;;;;;;1.80;1.70;;;;;;;14.03;100.00;95990.81;5026428;28;101986;-60
2022/10/15 07:09:22;;;;;;;5.30;2.33;;;;;;;14.02;100.00;95993.78;5009690;28;105502;-60
2022/10/15 07:11:49;;;;;;;3.03;2.40;;;;;;;14.04;100.00;95999.63;5009015;28;105942;-60
2022/10/15 07:14:16;;;;;;;2.13;2.00;;;;;;;14.04;100.00;96004.97;5009492;28;101985;-61
2022/10/15 07:16:44;;;;;;;2.30;2.10;;;;;;;14.05;100.00;96010.03;5008798;28;104855;-61
2022/10/15 07:19:12;;;;;;;1.70;1.60;;;;;;;14.07;100.00;96009.78;5018391;28;103831;-60
2022/10/15 07:21:51;;;;;;;2.47;2.20;;;;;;;14.10;100.00;96015.34;5029258;28;101913;-60
2022/10/15 07:24:18;;;;;;;6.30;1.90;;;;;;;14.17;100.00;96015.03;5032446;28;105307;-60
2022/10/15 07:26:47;;;;;;;2.73;2.17;;;;;;;14.17;100.00;96026.50;5029187;28;102113;-60
2022/10/15 07:29:15;;;;;;;1.97;1.80;;;;;;;14.25;100.00;96033.16;5030907;28;102517;-60
2022/10/15 07:31:44;;;;;;;2.30;1.80;;;;;;;14.29;100.00;96021.59;5008514;28;105692;-60
2022/10/15 07:34:13;;;;;;;2.57;1.47;;;;;;;14.43;100.00;96024.41;5010647;28;101972;-60
2022/10/15 07:37:10;;;;;;;4.20;2.00;;;;;;;14.49;100.00;96021.41;5009106;28;105065;-60
2022/10/15 07:39:38;;;;;;;1.43;1.20;;;;;;;14.59;100.00;96023.19;5008656;28;105136;-60
2022/10/15 07:42:05;;;;;;;1.00;1.00;;;;;;;14.67;100.00;96025.25;5009039;28;102044;-60
2022/10/15 07:44:32;;;;;;;1.47;1.20;;;;;;;14.72;100.00;96025.97;5009062;28;106515;-60
2022/10/15 07:46:59;;;;;;;1.50;1.40;;;;;;;14.77;100.00;96023.25;5012065;28;105383;-60
2022/10/15 07:49:28;;;;;;;1.70;1.20;;;;;;;14.79;100.00;96039.03;5008992;28;105510;-60
2022/10/15 07:52:45;;;;;;;2.07;1.00;;;;;;;14.82;100.00;96035.81;5017028;28;105490;-60
2022/10/15 07:55:12;;;;;;;0.87;0.60;;;;;;;14.87;100.00;96041.09;5028944;28;101969;-60
2022/10/15 07:57:43;;;;;;;0.90;0.90;;;;;;;14.94;100.00;96049.56;5029178;28;104990;-60
2022/10/15 08:00:12;;;;;;;1.70;1.57;;;;;;;14.94;100.00;96041.53;5028273;28;105739;-60
2022/10/15 08:02:42;;;;;;;2.87;2.63;;;;;;;14.96;100.00;96050.06;5029237;28;101817;-60
2022/10/15 08:05:11;;;;;;;3.80;1.57;;;;;;;14.95;100.00;96049.31;5028855;28;105469;-60
2022/10/15 08:07:44;;;;;;;2.67;1.80;;;;;;;14.95;100.00;96053.84;5029680;28;103310;-60
2022/10/15 08:10:12;;;;;;;1.90;1.80;;;;;;;14.91;100.00;96050.94;5034000;28;101718;-60
2022/10/15 08:12:39;;;;;;;1.90;1.80;;;;;;;14.97;100.00;96059.69;5028286;28;105946;-60
2022/10/15 08:15:07;;;;;;;2.47;2.27;;;;;;;14.96;100.00;96058.13;5030463;28;101839;-60
2022/10/15 08:17:34;;;;;;;2.70;1.53;;;;;;;15.01;100.00;96068.78;5030307;28;102364;-61
2022/10/15 08:20:01;;;;;;;3.40;2.27;;;;;;;15.02;100.00;96071.16;5029501;27;103120;-61
2022/10/15 08:22:29;;;;;;;2.17;1.67;;;;;;;15.06;100.00;96069.53;5030251;27;101862;-61
2022/10/15 08:24:56;;;;;;;2.87;2.00;;;;;;;15.03;100.00;96074.63;5029445;27;102988;-61
2022/10/15 08:27:27;;;;;;;3.10;2.70;;;;;;;15.09;100.00;96076.97;5011797;27;105226;-61
2022/10/15 08:29:57;;;;;;;4.60;2.00;;;;;;;15.10;100.00;96072.41;5033663;27;101714;-61
2022/10/15 08:32:23;;;;;;;1.70;1.60;;;;;;;15.07;100.00;96072.97;5036706;28;102442;-61
2022/10/15 08:34:50;;;;;;;3.93;2.40;;;;;;;15.10;100.00;96072.41;5032125;28;102039;-61
2022/10/15 08:37:49;;;;;;;2.17;1.60;;;;;;;15.18;100.00;96079.81;5032233;28;105536;-61
2022/10/15 08:40:16;;;;;;;3.27;3.07;;;;;;;15.17;100.00;96075.53;5032875;28;102831;-61
2022/10/15 08:42:46;;;;;;;2.93;2.73;;;;;;;15.16;100.00;96072.06;5032066;28;102289;-61
2022/10/15 08:45:17;;;;;;;1.80;1.70;;;;;;;15.16;100.00;96079.31;5033315;28;101676;-61
2022/10/15 08:48:22;;;;;;;1.97;1.50;;;;;;;15.21;100.00;96088.06;5032986;28;103252;-61
2022/10/15 08:51:42;;;;;;;1.30;1.20;;;;;;;15.26;100.00;96097.94;5033525;28;101723;-61
2022/10/15 08:54:16;;;;;;;1.60;1.50;;;;;;;15.28;100.00;96103.81;5036124;28;102546;-61
2022/10/15 08:57:11;;;;;;;1.80;1.70;;;;;;;15.25;100.00;96107.84;5032029;28;101839;-61
2022/10/15 08:59:45;;;;;;;1.27;1.17;;;;;;;15.20;100.00;96110.59;5031876;28;103442;-61
2022/10/15 09:02:17;;;;;;;2.03;1.80;;;;;;;15.27;100.00;96110.25;5032596;28;103019;-61
2022/10/15 09:04:53;;;;;;;1.30;1.20;;;;;;;15.27;100.00;96112.94;5031596;28;102002;-61
2022/10/15 09:07:32;;;;;;;1.60;1.50;;;;;;;15.34;100.00;96110.72;5031636;28;104058;-61
2022/10/15 09:10:13;;;;;;;2.20;1.57;;;;;;;15.35;100.00;96112.31;5032362;28;102636;-61
2022/10/15 09:12:48;;;;;;;1.80;1.70;;;;;;;15.41;100.00;96127.25;5033241;27;101754;-61
2022/10/15 09:15:18;;;;;;;2.53;1.80;;;;;;;15.46;100.00;96124.50;5031572;28;103657;-61
2022/10/15 09:17:53;;;;;;;1.57;1.47;;;;;;;15.51;100.00;96127.13;5034129;28;105419;-61
2022/10/15 09:23:44;;;;;;;2.00;1.60;;;;;;;15.61;100.00;96133.16;5032446;27;102954;-61
2022/10/15 09:26:28;;;;;;;1.60;1.50;;;;;;;15.65;100.00;96128.81;5032609;27;102268;-61
2022/10/15 09:29:04;;;;;;;4.10;1.30;;;;;;;15.74;100.00;96126.28;5031475;28;105202;-61
2022/10/15 09:31:37;;;;;;;1.30;1.20;;;;;;;15.85;100.00;96133.09;5030813;28;104247;-61
2022/10/15 09:34:13;;;;;;;3.40;1.73;;;;;;;15.96;100.00;96134.59;5031203;28;101908;-61
2022/10/15 09:36:46;;;;;;;4.27;2.03;;;;;;;16.10;100.00;96140.78;5031238;28;105392;-61
2022/10/15 09:39:38;;;;;;;2.40;1.97;;;;;;;16.14;100.00;96136.44;5029967;27;105747;-61
2022/10/15 09:42:19;;;;;;;2.80;1.60;;;;;;;16.26;100.00;96128.75;5034686;28;102016;-61
2022/10/15 09:44:48;;;;;;;1.00;0.90;;;;;;;16.36;100.00;96131.28;5030286;28;105501;-61
2022/10/15 09:47:18;;;;;;;0.70;0.70;;;;;;;16.42;100.00;96128.25;5031050;28;101967;-61
2022/10/15 09:49:45;;;;;;;0.90;0.90;;;;;;;16.56;100.00;96128.31;5031083;28;105644;-61
2022/10/15 09:52:20;;;;;;;2.00;0.90;;;;;;;16.65;100.00;96131.91;5030159;28;105839;-61
2022/10/15 09:54:59;;;;;;;1.17;0.83;;;;;;;16.71;100.00;96128.03;5030417;28;102007;-61
2022/10/15 09:57:41;;;;;;;0.70;0.60;;;;;;;16.78;100.00;96123.88;5030862;28;104974;-61
2022/10/15 10:00:10;;;;;;;0.80;0.60;;;;;;;16.88;100.00;96125.56;5030223;28;105158;-61
2022/10/15 10:02:43;;;;;;;1.10;0.70;;;;;;;17.00;100.00;96120.53;5030966;28;101794;-61
2022/10/15 10:05:20;;;;;;;1.17;0.60;;;;;;;17.04;100.00;96125.00;5033734;28;104760;-61
2022/10/15 10:08:25;;;;;;;1.97;0.70;;;;;;;17.17;100.00;96115.38;5030720;28;101896;-61
2022/10/15 10:10:56;;;;;;;0.70;0.70;;;;;;;17.42;100.00;96114.91;5030896;28;104114;-61
2022/10/15 10:13:28;;;;;;;1.50;0.60;;;;;;;17.50;100.00;96111.53;5030140;28;103938;-61
2022/10/15 10:16:01;;;;;;;1.00;0.80;;;;;;;17.72;100.00;96119.66;5030516;28;101819;-61
2022/10/15 10:18:30;;;;;;;1.03;0.60;;;;;;;17.52;100.00;96114.69;5030806;28;103574;-61
2022/10/15 10:21:22;;;;;;;0.80;0.60;;;;;;;17.75;100.00;96113.66;5029783;28;105443;-61
2022/10/15 10:23:49;;;;;;;1.00;0.60;;;;;;;17.97;100.00;96111.03;5030315;28;101940;-61
2022/10/15 10:26:35;;;;;;;1.60;0.80;;;;;;;18.07;100.00;96106.22;5030217;28;104110;-61
2022/10/15 10:29:06;;;;;;;0.60;0.60;;;;;;;18.06;100.00;96106.53;5033312;28;105077;-61
2022/10/15 10:31:41;;;;;;;2.40;0.60;;;;;;;18.06;100.00;96111.91;5030410;28;104895;-61
2022/10/15 10:34:15;;;;;;;0.73;0.73;;;;;;;18.11;100.00;96111.78;5029841;28;105951;-61
2022/10/15 10:36:48;;;;;;;1.10;0.60;;;;;;;18.12;100.00;96108.00;5030398;28;101750;-61
2022/10/15 10:39:25;;;;;;;1.80;0.93;;;;;;;18.26;100.00;96108.75;5030259;28;104114;-61
2022/10/15 10:41:56;;;;;;;0.80;0.70;;;;;;;18.33;100.00;96099.19;5029693;28;104257;-61
2022/10/15 10:44:29;;;;;;;0.53;0.50;;;;;;;18.41;100.00;96100.31;5029976;28;101799;-61
2022/10/15 10:50:42;;;;;;;1.03;0.60;;;;;;;18.58;100.00;96093.16;5029503;28;105459;-61
2022/10/15 10:53:22;;;;;;;0.50;0.47;;;;;;;18.85;100.00;96094.91;5032522;28;102250;-61
2022/10/15 10:55:52;;;;;;;1.20;0.60;;;;;;;19.19;100.00;96093.16;5029352;28;105311;-61
2022/10/15 10:58:29;;;;;;;0.87;0.60;;;;;;;19.06;100.00;96090.56;5029908;28;101866;-61
2022/10/15 11:00:58;;;;;;;0.70;0.70;;;;;;;19.37;100.00;96096.75;5029855;28;105159;-61
2022/10/15 11:03:35;;;;;;;1.27;0.80;;;;;;;19.52;100.00;96093.63;5009221;28;105791;-61
2022/10/15 11:06:37;;;;;;;1.27;0.80;;;;;;;19.60;100.00;96092.84;5011090;28;102052;-61
2022/10/15 11:09:20;;;;;;;1.20;0.73;;;;;;;19.44;100.00;96086.28;5029809;28;105190;-61
2022/10/15 11:12:00;;;;;;;1.57;0.77;;;;;;;19.45;100.00;96088.69;5028981;28;105380;-61
2022/10/15 11:14:34;;;;;;;0.77;0.77;;;;;;;19.64;100.00;96089.22;5032803;28;101781;-61
2022/10/15 11:17:17;;;;;;;1.87;0.70;;;;;;;19.93;100.00;96088.59;5030715;28;102685;-61
2022/10/15 11:19:51;;;;;;;2.10;1.00;;;;;;;19.85;100.00;96084.81;5029652;28;101884;-61
2022/10/15 11:22:36;;;;;;;0.80;0.80;;;;;;;20.10;100.00;96088.69;5029640;28;105371;-66
2022/10/15 11:25:16;;;;;;;2.70;0.90;;;;;;;20.04;100.00;96082.59;5030302;28;103247;-64
2022/10/15 11:27:54;;;;;;;2.97;0.70;;;;;;;20.05;100.00;96092.28;5029500;28;101792;-65
2022/10/15 11:30:39;;;;;;;2.00;0.80;;;;;;;19.82;100.00;96090.03;5047140;27;106633;-61
2022/10/15 11:33:24;;;;;;;0.80;0.80;;;;;;;19.85;100.00;96092.09;5028808;28;105419;-62
2022/10/15 11:36:32;;;;;;;3.53;0.80;;;;;;;19.66;100.00;96088.88;5053938;27;101894;-63
2022/10/15 11:39:16;;;;;;;0.67;0.67;;;;;;;20.02;100.00;96086.72;5014498;28;102496;-61
2022/10/15 11:41:54;;;;;;;1.07;0.90;;;;;;;20.02;100.00;96082.13;5029278;28;101981;-62
2022/10/15 11:44:33;;;;;;;0.90;0.90;;;;;;;19.94;100.00;96079.44;5029129;28;105375;-62
2022/10/15 11:47:37;;;;;;;1.10;0.70;;;;;;;20.00;100.00;96073.53;5028599;28;103986;-62
2022/10/15 11:50:17;;;;;;;1.30;0.80;;;;;;;20.42;100.00;96080.06;5029202;28;102883;-62
2022/10/15 11:53:02;;;;;;;0.60;0.60;;;;;;;20.47;100.00;96082.59;5029307;28;105043;-62
2022/10/15 11:55:34;;;;;;;2.00;0.50;;;;;;;19.92;100.00;96077.03;5028344;28;105909;-62
2022/10/15 11:58:12;;;;;;;0.70;0.70;;;;;;;20.00;100.00;96070.06;5029146;28;101992;-63
2022/10/15 12:00:42;;;;;;;3.83;3.40;;;;;;;19.88;100.00;96069.88;5029186;28;105275;-62